createdAt,value
2017-10-07T00:00:17.230Z,10.5
2017-10-07T00:02:17.086Z,14.5
2017-10-07T00:04:16.957Z,9.8
2017-10-07T00:06:16.777Z,7
2017-10-07T00:08:17.646Z,8.3
2017-10-07T00:10:17.497Z,5.9
2017-10-07T00:12:17.339Z,20
2017-10-07T00:14:17.186Z,13.6
2017-10-07T00:16:17.032Z,11.7
2017-10-07T00:18:17.879Z,9.4
2017-10-07T00:20:18.754Z,9.6
2017-10-07T00:22:21.558Z,10.5
2017-10-07T00:24:17.419Z,16
2017-10-07T00:26:18.244Z,11.8
2017-10-07T00:28:17.098Z,9.9
2017-10-07T00:30:16.911Z,9.8
2017-10-07T00:32:17.776Z,13.1
2017-10-07T00:34:17.627Z,15.2
2017-10-07T00:36:17.478Z,11.8
2017-10-07T00:38:17.291Z,10.6
2017-10-07T00:40:18.165Z,14
2017-10-07T00:42:16.997Z,10.7
2017-10-07T00:44:16.846Z,20.1
2017-10-07T00:46:17.682Z,5.4
2017-10-07T00:48:17.526Z,14.9
2017-10-07T00:50:17.409Z,16.7
2017-10-07T00:52:21.222Z,11.8
2017-10-07T00:54:17.085Z,12.9
2017-10-07T00:56:16.926Z,12.7
2017-10-07T00:58:17.762Z,16
2017-10-07T01:00:17.623Z,10.6
2017-10-07T01:02:17.470Z,15.3
2017-10-07T01:04:17.326Z,13.9
2017-10-07T01:06:17.164Z,12.6
2017-10-07T01:08:16.992Z,13.3
2017-10-07T01:10:17.870Z,15.3
2017-10-07T01:12:17.712Z,9
2017-10-07T01:14:17.540Z,13.7
2017-10-07T01:16:17.384Z,18.8
2017-10-07T01:18:18.230Z,11.3
2017-10-07T01:20:17.096Z,7.6
2017-10-07T01:22:16.963Z,9.1
2017-10-07T01:24:16.826Z,12.5
2017-10-07T01:26:17.658Z,14.6
2017-10-07T01:28:17.554Z,14.7
2017-10-07T01:30:18.376Z,12.6
2017-10-07T01:32:17.212Z,16.4
2017-10-07T01:34:17.080Z,14.1
2017-10-07T01:36:17.953Z,13.5
2017-10-07T01:38:16.786Z,11.3
2017-10-07T01:40:17.654Z,11.6
2017-10-07T01:42:17.524Z,10.2
2017-10-07T01:44:17.407Z,19
2017-10-07T01:46:18.235Z,14.6
2017-10-07T01:48:17.110Z,12.1
2017-10-07T01:50:16.968Z,13.6
2017-10-07T01:54:17.688Z,12
2017-10-07T01:56:17.544Z,10.8
2017-10-07T01:58:17.423Z,12.1
2017-10-07T02:00:17.327Z,13.7
2017-10-07T02:02:17.162Z,13.4
2017-10-07T02:04:17.051Z,15.5
2017-10-07T02:06:17.915Z,15.3
2017-10-07T02:08:17.804Z,12.4
2017-10-07T02:10:17.640Z,11.2
2017-10-07T02:12:17.534Z,18.1
2017-10-07T02:14:17.393Z,9.6
2017-10-07T02:16:18.259Z,15.9
2017-10-07T02:18:18.107Z,13.7
2017-10-07T02:20:16.998Z,11.3
2017-10-07T02:22:16.849Z,14.7
2017-10-07T02:24:17.695Z,13.6
2017-10-07T02:26:17.580Z,8.3
2017-10-07T02:28:17.445Z,15.6
2017-10-07T02:30:17.298Z,15.2
2017-10-07T02:32:17.187Z,15.8
2017-10-07T02:34:17.045Z,18
2017-10-07T02:36:17.926Z,7.5
2017-10-07T02:38:17.830Z,13.4
2017-10-07T02:40:17.691Z,14.5
2017-10-07T02:42:17.572Z,13.7
2017-10-07T02:44:17.431Z,13.7
2017-10-07T02:46:18.324Z,18.2
2017-10-07T02:48:17.198Z,13.6
2017-10-07T02:50:17.066Z,10.9
2017-10-07T02:52:16.938Z,13.1
2017-10-07T02:54:16.790Z,9.5
2017-10-07T02:56:17.653Z,21.1
2017-10-07T02:58:17.515Z,18.5
2017-10-07T03:00:17.408Z,14.7
2017-10-07T03:02:17.280Z,12.2
2017-10-07T03:04:17.146Z,13
2017-10-07T03:06:18.009Z,17.8
2017-10-07T03:08:16.902Z,17.2
2017-10-07T03:10:17.764Z,11.5
2017-10-07T03:12:17.644Z,13
2017-10-07T03:14:17.529Z,16.4
2017-10-07T03:16:17.376Z,13.3
2017-10-07T03:18:21.249Z,9.3
2017-10-07T03:20:18.117Z,10.8
2017-10-07T03:22:16.985Z,11.9
2017-10-07T03:24:16.836Z,10
2017-10-07T03:26:17.709Z,8.8
2017-10-07T03:28:17.590Z,10.6
2017-10-07T03:30:17.770Z,13
2017-10-07T03:32:18.317Z,9.9
2017-10-07T03:34:17.179Z,18.4
2017-10-07T03:36:18.066Z,13.1
2017-10-07T03:38:16.916Z,16.4
2017-10-07T03:40:17.810Z,16.7
2017-10-07T03:42:17.667Z,7
2017-10-07T03:44:17.527Z,13.3
2017-10-07T03:46:21.362Z,14.1
2017-10-07T03:48:17.238Z,10.2
2017-10-07T03:50:17.090Z,10.5
2017-10-07T03:52:16.955Z,10.9
2017-10-07T03:54:16.820Z,10.7
2017-10-07T03:56:17.687Z,7.1
2017-10-07T03:58:17.556Z,6.7
2017-10-07T04:00:17.401Z,9.6
2017-10-07T04:02:17.246Z,8.2
2017-10-07T04:04:17.113Z,11
2017-10-07T04:06:17.987Z,6.1
2017-10-07T04:08:16.822Z,6.4
2017-10-07T04:10:17.668Z,6.9
2017-10-07T04:12:17.532Z,6.4
2017-10-07T04:14:17.379Z,5.6
2017-10-07T04:16:17.231Z,5.8
2017-10-07T04:18:18.082Z,11.3
2017-10-07T04:20:16.942Z,4.5
2017-10-07T04:22:16.772Z,8.7
2017-10-07T04:24:17.637Z,10.2
2017-10-07T04:26:17.472Z,6.1
2017-10-07T04:28:17.314Z,11.2
2017-10-07T04:30:17.172Z,8.2
2017-10-07T04:32:17.037Z,10.8
2017-10-07T04:34:16.881Z,11.1
2017-10-07T04:36:17.754Z,14.9
2017-10-07T04:38:17.597Z,11.5
2017-10-07T04:40:17.417Z,9.1
2017-10-07T04:42:17.286Z,8.3
2017-10-07T04:44:17.106Z,8.3
2017-10-07T04:46:16.958Z,13.1
2017-10-07T04:48:16.833Z,8.7
2017-10-07T04:50:21.636Z,15.9
2017-10-07T04:52:17.500Z,13.9
2017-10-07T04:54:17.393Z,13.4
2017-10-07T04:56:18.254Z,8
2017-10-07T04:58:17.106Z,12
2017-10-07T05:00:16.965Z,14.9
2017-10-07T05:02:16.850Z,16.7
2017-10-07T05:04:17.722Z,13.6
2017-10-07T05:06:17.544Z,11.1
2017-10-07T05:08:17.433Z,15.9
2017-10-07T05:10:17.295Z,12.8
2017-10-07T05:12:17.145Z,17.6
2017-10-07T05:14:17.031Z,10
2017-10-07T05:16:17.846Z,10.2
2017-10-07T05:18:18.709Z,15.3
2017-10-07T05:20:17.542Z,10.8
2017-10-07T05:22:17.403Z,7.4
2017-10-07T05:24:17.257Z,10.1
2017-10-07T05:26:17.111Z,9.8
2017-10-07T05:28:16.945Z,10.8
2017-10-07T05:30:17.807Z,8.3
2017-10-07T05:32:17.660Z,11.6
2017-10-07T05:34:17.495Z,6.4
2017-10-07T05:38:17.231Z,20.2
2017-10-07T05:40:18.072Z,6.5
2017-10-07T05:42:16.925Z,13.3
2017-10-07T05:44:17.758Z,5.8
2017-10-07T05:46:17.620Z,7.6
2017-10-07T05:48:17.467Z,4
2017-10-07T05:50:17.328Z,5.9
2017-10-07T05:52:17.193Z,4.5
2017-10-07T05:54:17.078Z,6
2017-10-07T05:56:17.924Z,4.5
2017-10-07T05:58:17.742Z,6.8
2017-10-07T06:00:17.624Z,4.8
2017-10-07T06:02:17.466Z,12.4
2017-10-07T06:04:17.337Z,9.3
2017-10-07T06:06:17.146Z,6.9
2017-10-07T06:08:17.015Z,5.6
2017-10-07T06:10:17.844Z,9.1
2017-10-07T06:12:17.697Z,3.6
2017-10-07T06:14:17.532Z,5.7
2017-10-07T06:16:17.386Z,7.2
2017-10-07T06:18:21.264Z,7.7
2017-10-07T06:20:17.121Z,13.9
2017-10-07T06:22:16.951Z,9.8
2017-10-07T06:24:16.784Z,7.4
2017-10-07T06:26:17.638Z,9.4
2017-10-07T06:28:17.526Z,5.8
2017-10-07T06:30:18.317Z,7.3
2017-10-07T06:32:17.189Z,9.6
2017-10-07T06:34:17.066Z,8.2
2017-10-07T06:36:17.903Z,5.6
2017-10-07T06:38:17.763Z,11.1
2017-10-07T06:40:17.652Z,8.3
2017-10-07T06:42:17.461Z,10.5
2017-10-07T06:44:17.312Z,10.1
2017-10-07T06:46:18.192Z,4.3
2017-10-07T06:48:17.045Z,6
2017-10-07T06:50:16.880Z,9.6
2017-10-07T06:52:17.754Z,9
2017-10-07T06:54:17.590Z,2.7
2017-10-07T06:56:17.453Z,4.2
2017-10-07T06:58:17.330Z,8.6
2017-10-07T07:00:17.192Z,6
2017-10-07T07:02:17.063Z,4
2017-10-07T07:04:16.936Z,6.9
2017-10-07T07:06:17.820Z,4.5
2017-10-07T07:08:17.703Z,3.2
2017-10-07T07:10:17.576Z,6
2017-10-07T07:12:17.444Z,6.6
2017-10-07T07:14:17.293Z,7.3
2017-10-07T07:16:17.169Z,6.2
2017-10-07T07:18:18.035Z,8.3
2017-10-07T07:20:16.923Z,10.1
2017-10-07T07:22:17.785Z,2.2
2017-10-07T07:24:17.639Z,4.9
2017-10-07T07:26:17.490Z,1.6
2017-10-07T07:28:17.388Z,5.2
2017-10-07T07:30:21.241Z,2.4
2017-10-07T07:32:17.104Z,1.7
2017-10-07T07:34:16.981Z,6.9
2017-10-07T07:36:17.838Z,5.1
2017-10-07T07:38:17.709Z,3.3
2017-10-07T07:40:17.612Z,2.1
2017-10-07T07:42:17.518Z,7.6
2017-10-07T07:44:21.350Z,8.1
2017-10-07T07:46:18.221Z,2.6
2017-10-07T07:48:17.107Z,4.4
2017-10-07T07:50:16.970Z,6.1
2017-10-07T07:52:16.865Z,1.5
2017-10-07T07:54:17.732Z,6.7
2017-10-07T07:56:17.599Z,5.3
2017-10-07T07:58:17.481Z,3.8
2017-10-07T08:00:17.354Z,3.7
2017-10-07T08:02:17.207Z,5.1
2017-10-07T08:04:17.079Z,7.3
2017-10-07T08:06:17.956Z,3.4
2017-10-07T08:08:16.842Z,4.3
2017-10-07T08:10:17.709Z,2.9
2017-10-07T08:12:17.568Z,5.1
2017-10-07T08:14:17.462Z,1.8
2017-10-07T08:16:18.337Z,3.5
2017-10-07T08:18:17.241Z,6.5
2017-10-07T08:20:17.109Z,3.8
2017-10-07T08:22:16.988Z,3.4
2017-10-07T08:24:16.855Z,6.9
2017-10-07T08:26:17.724Z,3.8
2017-10-07T08:28:17.577Z,2.4
2017-10-07T08:30:17.451Z,4.2
2017-10-07T08:32:17.359Z,5.4
2017-10-07T08:34:17.233Z,6.2
2017-10-07T08:36:17.116Z,11.6
2017-10-07T08:38:16.994Z,6.3
2017-10-07T08:40:17.882Z,4.1
2017-10-07T08:42:17.747Z,3.1
2017-10-07T08:44:17.611Z,7.6
2017-10-07T08:46:17.473Z,4.2
2017-10-07T08:48:17.350Z,6.8
2017-10-07T08:50:17.259Z,2.7
2017-10-07T08:52:17.153Z,3.8
2017-10-07T08:54:17.055Z,7.8
2017-10-07T08:56:17.897Z,2.4
2017-10-07T08:58:17.828Z,5.9
2017-10-07T09:00:17.689Z,3.8
2017-10-07T09:02:17.590Z,1.5
2017-10-07T09:04:17.500Z,3
2017-10-07T09:06:17.425Z,2.6
2017-10-07T09:08:17.333Z,2.3
2017-10-07T09:10:18.223Z,2.9
2017-10-07T09:12:17.122Z,3.8
2017-10-07T09:14:17.031Z,3.5
2017-10-07T09:16:16.944Z,3.6
2017-10-07T09:18:20.834Z,3.3
2017-10-07T09:20:17.720Z,3.6
2017-10-07T09:22:17.630Z,2
2017-10-07T09:24:17.530Z,1.7
2017-10-07T09:26:17.425Z,4
2017-10-07T09:28:17.294Z,0.2
2017-10-07T09:30:17.206Z,1.2
2017-10-07T09:32:17.105Z,2.1
2017-10-07T09:34:16.991Z,0.8
2017-10-07T09:36:17.869Z,3
2017-10-07T09:38:17.793Z,1.6
2017-10-07T09:40:17.683Z,2.8
2017-10-07T09:42:17.546Z,0.9
2017-10-07T09:44:17.450Z,5.5
2017-10-07T09:46:17.314Z,2.3
2017-10-07T09:48:17.240Z,0.9
2017-10-07T09:50:17.108Z,2.3
2017-10-07T09:52:17.018Z,1
2017-10-07T09:54:16.916Z,7
2017-10-07T09:56:17.795Z,1.1
2017-10-07T09:58:17.679Z,2.8
2017-10-07T10:00:17.579Z,2.8
2017-10-07T10:02:17.447Z,1.5
2017-10-07T10:04:17.354Z,6.5
2017-10-07T10:06:18.239Z,1
2017-10-07T10:08:17.126Z,2.2
2017-10-07T10:10:18.044Z,3.1
2017-10-07T10:12:16.920Z,3.2
2017-10-07T10:14:17.819Z,3.9
2017-10-07T10:16:17.717Z,1.7
2017-10-07T10:18:21.614Z,3.6
2017-10-07T10:20:17.522Z,4.3
2017-10-07T10:22:17.402Z,2.9
2017-10-07T10:24:17.307Z,3.1
2017-10-07T10:26:18.216Z,4.1
2017-10-07T10:28:17.111Z,4.1
2017-10-07T10:30:17.090Z,4.7
2017-10-07T10:32:16.915Z,5.4
2017-10-07T10:34:17.784Z,6.8
2017-10-07T10:36:17.708Z,3.8
2017-10-07T10:38:17.589Z,2.7
2017-10-07T10:40:17.499Z,9.4
2017-10-07T10:42:17.375Z,1.1
2017-10-07T10:44:17.300Z,2.5
2017-10-07T10:46:18.187Z,6.9
2017-10-07T10:48:17.078Z,6.3
2017-10-07T10:50:16.949Z,5.2
2017-10-07T10:52:16.847Z,7
2017-10-07T10:54:17.712Z,3.1
2017-10-07T10:56:18.603Z,2.7
2017-10-07T10:58:17.498Z,6.2
2017-10-07T11:00:17.388Z,6.4
2017-10-07T11:02:17.269Z,9.3
2017-10-07T11:04:17.142Z,3.6
2017-10-07T11:06:17.013Z,10.8
2017-10-07T11:08:16.881Z,4.9
2017-10-07T11:10:17.802Z,4.2
2017-10-07T11:12:17.666Z,5.7
2017-10-07T11:14:17.534Z,1.8
2017-10-07T11:16:17.427Z,3.5
2017-10-07T11:18:17.314Z,9.9
2017-10-07T11:20:18.195Z,4.1
2017-10-07T11:22:17.099Z,4.7
2017-10-07T11:24:17.010Z,7.1
2017-10-07T11:26:17.883Z,4.6
2017-10-07T11:28:17.821Z,4
2017-10-07T11:30:17.701Z,10
2017-10-07T11:32:17.607Z,4.8
2017-10-07T11:34:17.480Z,4.1
2017-10-07T11:36:18.386Z,2.7
2017-10-07T11:38:17.302Z,6.6
2017-10-07T11:40:18.167Z,2.5
2017-10-07T11:42:17.051Z,5.3
2017-10-07T11:44:16.945Z,6.5
2017-10-07T11:46:17.834Z,5.6
2017-10-07T11:48:17.713Z,6.1
2017-10-07T11:50:17.593Z,5.5
2017-10-07T11:52:17.499Z,4.2
2017-10-07T11:54:17.407Z,6.6
2017-10-07T11:56:17.325Z,4.8
2017-10-07T11:58:17.249Z,3.3
2017-10-07T12:00:17.139Z,5.9
2017-10-07T12:02:17.050Z,6.4
2017-10-07T12:04:16.957Z,4.9
2017-10-07T12:06:17.853Z,5.5
2017-10-07T12:08:17.787Z,5.4
2017-10-07T12:10:17.696Z,4.9
2017-10-07T12:12:17.564Z,5.5
2017-10-07T12:14:17.477Z,4.4
2017-10-07T12:16:17.420Z,4.2
2017-10-07T12:18:21.306Z,7.5
2017-10-07T12:20:17.230Z,7.3
2017-10-07T12:22:17.101Z,8.7
2017-10-07T12:24:17.044Z,5.7
2017-10-07T12:26:17.945Z,6.4
2017-10-07T12:28:16.866Z,6.7
2017-10-07T12:30:17.739Z,5.2
2017-10-07T12:32:17.647Z,5
2017-10-07T12:34:17.565Z,6.7
2017-10-07T12:36:18.450Z,11.9
2017-10-07T12:38:17.365Z,2.4
2017-10-07T12:40:18.228Z,3.5
2017-10-07T12:42:17.148Z,5.2
2017-10-07T12:44:17.073Z,5
2017-10-07T12:46:17.965Z,7.8
2017-10-07T12:48:16.868Z,6.6
2017-10-07T12:50:21.728Z,3.9
2017-10-07T12:52:17.643Z,13.1
2017-10-07T12:54:17.536Z,1
2017-10-07T12:56:17.456Z,2.8
2017-10-07T12:58:17.366Z,3
2017-10-07T13:00:17.305Z,3.6
2017-10-07T13:02:17.177Z,3.5
2017-10-07T13:04:17.096Z,6.6
2017-10-07T13:06:17.960Z,6.9
2017-10-07T13:08:16.879Z,4.2
2017-10-07T13:10:17.818Z,5.4
2017-10-07T13:12:17.709Z,7.1
2017-10-07T13:14:17.584Z,1.9
2017-10-07T13:16:18.491Z,1.7
2017-10-07T13:18:17.430Z,1.8
2017-10-07T13:20:17.305Z,11.9
2017-10-07T13:22:17.221Z,5.4
2017-10-07T13:24:17.134Z,3.9
2017-10-07T13:26:21.000Z,5.5
2017-10-07T13:28:16.917Z,6.7
2017-10-07T13:30:17.824Z,5
2017-10-07T13:32:17.700Z,9.4
2017-10-07T13:34:17.616Z,6.8
2017-10-07T13:36:17.530Z,10.1
2017-10-07T13:38:17.392Z,5.4
2017-10-07T13:40:18.322Z,6.6
2017-10-07T13:42:17.196Z,10.1
2017-10-07T13:44:17.116Z,1.9
2017-10-07T13:46:18.005Z,5.5
2017-10-07T13:48:16.860Z,2.5
2017-10-07T13:50:17.749Z,6.1
2017-10-07T13:52:17.696Z,10.2
2017-10-07T13:54:17.547Z,4
2017-10-07T13:56:17.431Z,7.2
2017-10-07T13:58:17.338Z,8.3
2017-10-07T14:00:17.257Z,10.1
2017-10-07T14:02:17.113Z,9.1
2017-10-07T14:04:17.031Z,6.9
2017-10-07T14:06:17.935Z,5.1
2017-10-07T14:08:16.801Z,7.3
2017-10-07T14:10:17.687Z,15.1
2017-10-07T14:12:17.593Z,7.2
2017-10-07T14:14:17.473Z,5.5
2017-10-07T14:16:17.352Z,4.9
2017-10-07T14:18:18.201Z,4.1
2017-10-07T14:20:17.089Z,6
2017-10-07T14:22:16.997Z,4.6
2017-10-07T14:24:16.913Z,7.3
2017-10-07T14:26:17.741Z,6.5
2017-10-07T14:28:17.625Z,7.5
2017-10-07T14:30:17.499Z,8.4
2017-10-07T14:32:17.396Z,2.2
2017-10-07T14:34:17.260Z,4
2017-10-07T14:36:18.160Z,8
2017-10-07T14:38:17.049Z,7.7
2017-10-07T14:40:17.921Z,9.1
2017-10-07T14:42:17.802Z,3.3
2017-10-07T14:44:17.714Z,10.1
2017-10-07T14:46:17.607Z,8
2017-10-07T14:48:17.493Z,9.2
2017-10-07T14:50:17.424Z,7
2017-10-07T14:52:17.285Z,8.5
2017-10-07T14:54:17.165Z,7
2017-10-07T14:56:18.078Z,8
2017-10-07T14:58:16.947Z,7.6
2017-10-07T15:00:16.817Z,7.6
2017-10-07T15:02:17.709Z,8.2
2017-10-07T15:04:17.609Z,5
2017-10-07T15:06:18.451Z,8.8
2017-10-07T15:08:17.345Z,10.9
2017-10-07T15:10:18.218Z,4.9
2017-10-07T15:12:17.089Z,8.7
2017-10-07T15:14:16.962Z,6.9
2017-10-07T15:16:17.815Z,7.6
2017-10-07T15:18:18.694Z,8
2017-10-07T15:20:17.543Z,4.8
2017-10-07T15:22:17.421Z,8.5
2017-10-07T15:24:17.263Z,4.2
2017-10-07T15:26:18.116Z,4.2
2017-10-07T15:28:16.978Z,3.2
2017-10-07T15:30:16.822Z,6.8
2017-10-07T15:32:17.706Z,8.6
2017-10-07T15:34:17.557Z,6.3
2017-10-07T15:36:17.416Z,7.6
2017-10-07T15:38:17.278Z,8.6
2017-10-07T15:40:18.161Z,7.5
2017-10-07T15:42:17.065Z,2.8
2017-10-07T15:44:16.918Z,10.4
2017-10-07T15:46:17.792Z,5.5
2017-10-07T15:48:17.652Z,6.8
2017-10-07T15:50:18.513Z,7.3
2017-10-07T15:52:21.364Z,2.4
2017-10-07T15:54:17.251Z,6.4
2017-10-07T15:56:18.096Z,5.4
2017-10-07T15:58:16.974Z,3.3
2017-10-07T16:00:16.828Z,8.3
2017-10-07T16:02:17.699Z,7.2
2017-10-07T16:04:17.577Z,5.2
2017-10-07T16:06:18.417Z,2.6
2017-10-07T16:08:17.290Z,5
2017-10-07T16:10:18.126Z,5.6
2017-10-07T16:12:16.987Z,12.5
2017-10-07T16:14:16.859Z,6.9
2017-10-07T16:16:17.690Z,5.8
2017-10-07T16:18:18.559Z,6
2017-10-07T16:20:17.410Z,4.1
2017-10-07T16:22:17.264Z,19.9
2017-10-07T16:24:17.135Z,11.1
2017-10-07T16:26:17.015Z,5.2
2017-10-07T16:28:16.878Z,5.4
2017-10-07T16:30:18.726Z,8.7
2017-10-07T16:32:17.595Z,3.5
2017-10-07T16:34:17.453Z,4.9
2017-10-07T16:36:18.321Z,5.3
2017-10-07T16:38:17.182Z,6.3
2017-10-07T16:40:18.050Z,4.1
2017-10-07T16:42:16.913Z,4.6
2017-10-07T16:44:17.796Z,2.8
2017-10-07T16:46:17.645Z,3.4
2017-10-07T16:48:17.509Z,5.3
2017-10-07T16:50:17.375Z,5.1
2017-10-07T16:52:17.225Z,3.4
2017-10-07T16:54:17.090Z,4.1
2017-10-07T16:56:17.941Z,6.7
2017-10-07T16:58:17.820Z,5.2
2017-10-07T17:00:18.629Z,3.5
2017-10-07T17:02:17.495Z,3.4
2017-10-07T17:04:17.375Z,3.1
2017-10-07T17:06:18.228Z,2.8
2017-10-07T17:08:17.050Z,4.2
2017-10-07T17:10:17.934Z,4
2017-10-07T17:12:16.813Z,2.3
2017-10-07T17:14:17.645Z,12.2
2017-10-07T17:16:17.494Z,1.8
2017-10-07T17:18:18.342Z,1.7
2017-10-07T17:20:17.221Z,2.8
2017-10-07T17:22:17.057Z,2.7
2017-10-07T17:24:16.951Z,2.3
2017-10-07T17:26:17.780Z,2.4
2017-10-07T17:28:17.619Z,3.1
2017-10-07T17:30:17.507Z,4.4
2017-10-07T17:32:21.325Z,1.5
2017-10-07T17:34:17.190Z,4.1
2017-10-07T17:36:17.048Z,2.7
2017-10-07T17:38:16.895Z,1.8
2017-10-07T17:40:17.739Z,3.5
2017-10-07T17:42:17.565Z,4.5
2017-10-07T17:44:17.448Z,2.5
2017-10-07T17:46:17.273Z,2
2017-10-07T17:48:17.134Z,2.5
2017-10-07T17:50:17.001Z,6.4
2017-10-07T17:52:16.867Z,2.3
2017-10-07T17:54:17.718Z,2.9
2017-10-07T17:56:17.569Z,2.2
2017-10-07T17:58:17.415Z,2.2
2017-10-07T18:00:17.287Z,1.4
2017-10-07T18:02:17.169Z,5.8
2017-10-07T18:04:17.008Z,1.4
2017-10-07T18:06:17.867Z,2.9
2017-10-07T18:08:17.712Z,4.1
2017-10-07T18:10:17.604Z,2.1
2017-10-07T18:12:17.440Z,2.2
2017-10-07T18:14:17.326Z,3.1
2017-10-07T18:16:18.181Z,2.4
2017-10-07T18:18:18.022Z,3.6
2017-10-07T18:20:16.909Z,1.1
2017-10-07T18:22:17.748Z,7.8
2017-10-07T18:24:17.603Z,2.8
2017-10-07T18:26:17.457Z,3.1
2017-10-07T18:28:17.314Z,1.8
2017-10-07T18:30:17.144Z,4.7
2017-10-07T18:32:16.982Z,2.2
2017-10-07T18:34:16.866Z,1.4
2017-10-07T18:36:17.691Z,5.3
2017-10-07T18:38:17.545Z,4
2017-10-07T18:40:17.374Z,4.8
2017-10-07T18:42:17.235Z,4.9
2017-10-07T18:44:17.089Z,5.4
2017-10-07T18:46:17.883Z,9.7
2017-10-07T18:48:17.751Z,1.8
2017-10-07T18:50:21.573Z,1
2017-10-07T18:52:17.437Z,4.3
2017-10-07T18:54:17.298Z,8.8
2017-10-07T18:56:18.138Z,3.7
2017-10-07T18:58:16.968Z,4.6
2017-10-07T19:00:16.843Z,5.1
2017-10-07T19:02:17.652Z,4.3
2017-10-07T19:04:17.505Z,5.1
2017-10-07T19:06:17.345Z,3.5
2017-10-07T19:08:17.212Z,2.8
2017-10-07T19:10:18.045Z,8.4
2017-10-07T19:12:16.926Z,1.6
2017-10-07T19:14:20.726Z,3.4
2017-10-07T19:16:18.611Z,5.9
2017-10-07T19:18:18.450Z,4
2017-10-07T19:20:17.322Z,5
2017-10-07T19:22:17.148Z,8.6
2017-10-07T19:24:17.030Z,1.4
2017-10-07T19:26:17.883Z,3.4
2017-10-07T19:28:17.732Z,6.4
2017-10-07T19:30:17.595Z,2.3
2017-10-07T19:32:17.456Z,2.4
2017-10-07T19:34:17.306Z,2.7
2017-10-07T19:36:17.137Z,3.7
2017-10-07T19:38:17.029Z,1.4
2017-10-07T19:40:17.841Z,1.4
2017-10-07T19:42:17.703Z,2.5
2017-10-07T19:44:17.523Z,3.7
2017-10-07T19:46:18.381Z,4.6
2017-10-07T19:48:17.237Z,3.5
2017-10-07T19:50:18.067Z,6.5
2017-10-07T19:52:16.937Z,4.7
2017-10-07T19:54:16.775Z,4.3
2017-10-07T19:56:17.674Z,3.5
2017-10-07T19:58:21.479Z,2.5
2017-10-07T20:00:17.323Z,2.6
2017-10-07T20:02:17.185Z,3.3
2017-10-07T20:04:17.058Z,3.9
2017-10-07T20:06:17.861Z,1.4
2017-10-07T20:08:17.732Z,4.5
2017-10-07T20:10:17.526Z,3.6
2017-10-07T20:12:17.362Z,3
2017-10-07T20:14:17.213Z,3.6
2017-10-07T20:16:17.029Z,2.4
2017-10-07T20:18:17.874Z,1.4
2017-10-07T20:20:17.699Z,2.5
2017-10-07T20:22:17.534Z,3.4
2017-10-07T20:24:17.390Z,1.8
2017-10-07T20:26:18.220Z,3
2017-10-07T20:28:17.085Z,1.4
2017-10-07T20:30:16.940Z,2.5
2017-10-07T20:32:20.776Z,3.8
2017-10-07T20:34:17.624Z,1.3
2017-10-07T20:36:18.495Z,4.8
2017-10-07T20:38:21.268Z,0.9
2017-10-07T20:40:18.136Z,2.1
2017-10-07T20:42:16.985Z,1.3
2017-10-07T20:44:16.838Z,1.7
2017-10-07T20:46:17.693Z,2.1
2017-10-07T20:48:17.540Z,1.4
2017-10-07T20:50:17.366Z,1.7
2017-10-07T20:52:17.191Z,3.2
2017-10-07T20:54:17.046Z,3.1
2017-10-07T20:56:17.882Z,2.2
2017-10-07T20:58:17.731Z,2.2
2017-10-07T21:00:17.567Z,2
2017-10-07T21:02:17.435Z,1.1
2017-10-07T21:04:18.218Z,7.4
2017-10-07T21:06:18.063Z,6.2
2017-10-07T21:08:16.922Z,2.4
2017-10-07T21:10:17.736Z,1.2
2017-10-07T21:12:21.579Z,1.6
2017-10-07T21:14:17.389Z,1.3
2017-10-07T21:16:18.256Z,1.5
2017-10-07T21:18:18.088Z,1.6
2017-10-07T21:20:16.893Z,2.4
2017-10-07T21:22:17.758Z,2.5
2017-10-07T21:24:17.563Z,1.3
2017-10-07T21:26:18.437Z,2.2
2017-10-07T21:28:21.258Z,1.8
2017-10-07T21:30:17.103Z,3.5
2017-10-07T21:32:16.953Z,4.2
2017-10-07T21:34:16.817Z,2.7
2017-10-07T21:36:17.647Z,2.8
2017-10-07T21:38:17.525Z,1.1
2017-10-07T21:40:17.377Z,1.2
2017-10-07T21:42:17.229Z,1.2
2017-10-07T21:44:17.062Z,2.2
2017-10-07T21:46:17.900Z,1.9
2017-10-07T21:48:17.722Z,1.4
2017-10-07T21:50:17.571Z,2.1
2017-10-07T21:52:17.428Z,4.3
2017-10-07T21:54:17.244Z,0.9
2017-10-07T21:56:18.096Z,0.7
2017-10-07T21:58:16.976Z,1.3
2017-10-07T22:00:20.761Z,0.9
2017-10-07T22:02:17.626Z,1.8
2017-10-07T22:04:17.459Z,1.7
2017-10-07T22:06:17.300Z,2.1
2017-10-07T22:08:17.127Z,2
2017-10-07T22:10:17.971Z,1.6
2017-10-07T22:12:16.803Z,2
2017-10-07T22:14:17.654Z,1.5
2017-10-07T22:16:17.476Z,2.1
2017-10-07T22:18:18.313Z,2.4
2017-10-07T22:20:17.174Z,2
2017-10-07T22:22:17.052Z,0.7
2017-10-07T22:24:20.845Z,3.4
2017-10-07T22:26:17.713Z,1.9
2017-10-07T22:28:17.539Z,0.7
2017-10-07T22:30:17.383Z,2.3
2017-10-07T22:32:21.204Z,2.9
2017-10-07T22:34:17.063Z,1.7
2017-10-07T22:36:17.891Z,1.5
2017-10-07T22:38:17.755Z,1
2017-10-07T22:40:17.617Z,0.8
2017-10-07T22:42:17.455Z,2
2017-10-07T22:44:17.295Z,1.1
2017-10-07T22:46:17.138Z,1.9
2017-10-07T22:48:16.970Z,3.1
2017-10-07T22:50:16.819Z,0.7
2017-10-07T22:52:17.648Z,2.6
2017-10-07T22:54:17.524Z,0.3
2017-10-07T22:56:17.354Z,3.1
2017-10-07T22:58:17.206Z,0.4
2017-10-07T23:00:18.067Z,1
2017-10-07T23:02:16.907Z,2.2
2017-10-07T23:04:17.771Z,2.8
2017-10-07T23:06:17.615Z,4.1
2017-10-07T23:08:17.451Z,1.1
2017-10-07T23:10:17.355Z,0.9
2017-10-07T23:12:21.179Z,0.4
2017-10-07T23:14:17.044Z,1.3
2017-10-07T23:16:17.888Z,0.5
2017-10-07T23:18:17.752Z,0.3
2017-10-07T23:20:17.579Z,0.7
2017-10-07T23:22:17.438Z,1.3
2017-10-07T23:24:17.271Z,2.8
2017-10-07T23:26:17.161Z,1.9
2017-10-07T23:28:16.990Z,3.3
2017-10-07T23:30:16.851Z,4.3
2017-10-07T23:32:17.708Z,0.8
2017-10-07T23:34:17.577Z,2.6
2017-10-07T23:36:17.426Z,0.3
2017-10-07T23:38:17.304Z,0.7
2017-10-07T23:40:18.124Z,0.5
2017-10-07T23:42:16.997Z,0.3
2017-10-07T23:44:16.840Z,2
2017-10-07T23:46:17.705Z,2.4
2017-10-07T23:48:17.545Z,0.5
2017-10-07T23:50:17.385Z,0.7
2017-10-07T23:52:17.252Z,1.2
2017-10-07T23:54:17.136Z,0.7
2017-10-07T23:56:17.000Z,2.1
2017-10-07T23:58:16.833Z,2.7
